sensor_id;sensor_type;location;lat;lon;timestamp;P1;durP1;ratioP1;P2;durP2;ratioP2
1306;SDS011;646;48.696;9.114;2022-10-16T00:00:52;2.27;;;2.07;;
1306;SDS011;646;48.696;9.114;2022-10-16T00:03:18;2.20;;;2.00;;
1306;SDS011;646;48.696;9.114;2022-10-16T00:05:44;4.33;;;2.33;;
1306;SDS011;646;48.696;9.114;2022-10-16T00:08:12;2.30;;;2.10;;
1306;SDS011;646;48.696;9.114;2022-10-16T00:10:38;3.10;;;2.27;;
1306;SDS011;646;48.696;9.114;2022-10-16T00:13:04;2.60;;;2.40;;
1306;SDS011;646;48.696;9.114;2022-10-16T00:15:32;2.83;;;2.63;;
1306;SDS011;646;48.696;9.114;2022-10-16T00:18:01;3.33;;;2.37;;
1306;SDS011;646;48.696;9.114;2022-10-16T00:20:27;2.77;;;2.20;;
1306;SDS011;646;48.696;9.114;2022-10-16T00:22:53;3.13;;;2.60;;
1306;SDS011;646;48.696;9.114;2022-10-16T00:25:18;2.30;;;2.13;;
1306;SDS011;646;48.696;9.114;2022-10-16T00:27:44;2.50;;;2.30;;
1306;SDS011;646;48.696;9.114;2022-10-16T00:30:09;2.77;;;2.57;;
1306;SDS011;646;48.696;9.114;2022-10-16T00:32:35;2.60;;;2.40;;
1306;SDS011;646;48.696;9.114;2022-10-16T00:35:01;2.93;;;2.50;;
1306;SDS011;646;48.696;9.114;2022-10-16T00:37:28;2.50;;;2.40;;
1306;SDS011;646;48.696;9.114;2022-10-16T00:39:54;2.53;;;2.33;;
1306;SDS011;646;48.696;9.114;2022-10-16T00:42:20;3.10;;;2.70;;
1306;SDS011;646;48.696;9.114;2022-10-16T00:44:53;1.93;;;1.83;;
1306;SDS011;646;48.696;9.114;2022-10-16T00:47:27;2.40;;;2.30;;
1306;SDS011;646;48.696;9.114;2022-10-16T00:50:06;2.10;;;2.00;;
1306;SDS011;646;48.696;9.114;2022-10-16T00:52:41;2.80;;;2.60;;
1306;SDS011;646;48.696;9.114;2022-10-16T00:55:10;2.90;;;2.60;;
1306;SDS011;646;48.696;9.114;2022-10-16T00:57:36;3.30;;;2.40;;
1306;SDS011;646;48.696;9.114;2022-10-16T01:00:04;2.67;;;2.47;;
1306;SDS011;646;48.696;9.114;2022-10-16T01:02:31;3.07;;;2.30;;
1306;SDS011;646;48.696;9.114;2022-10-16T01:04:57;2.90;;;2.43;;
1306;SDS011;646;48.696;9.114;2022-10-16T01:07:36;4.33;;;2.10;;
1306;SDS011;646;48.696;9.114;2022-10-16T01:13:00;1.93;;;1.83;;
1306;SDS011;646;48.696;9.114;2022-10-16T01:15:34;5.73;;;1.73;;
1306;SDS011;646;48.696;9.114;2022-10-16T01:18:16;2.17;;;1.97;;
1306;SDS011;646;48.696;9.114;2022-10-16T01:20:54;1.80;;;1.70;;
1306;SDS011;646;48.696;9.114;2022-10-16T01:26:30;4.80;;;2.30;;
1306;SDS011;646;48.696;9.114;2022-10-16T01:29:21;2.70;;;2.33;;
1306;SDS011;646;48.696;9.114;2022-10-16T01:31:50;2.37;;;2.27;;
1306;SDS011;646;48.696;9.114;2022-10-16T01:34:47;2.60;;;2.40;;
1306;SDS011;646;48.696;9.114;2022-10-16T01:37:18;3.20;;;2.23;;
1306;SDS011;646;48.696;9.114;2022-10-16T01:40:09;3.67;;;2.53;;
1306;SDS011;646;48.696;9.114;2022-10-16T01:42:57;3.87;;;2.60;;
1306;SDS011;646;48.696;9.114;2022-10-16T01:45:26;2.50;;;2.30;;
1306;SDS011;646;48.696;9.114;2022-10-16T01:47:55;2.30;;;2.20;;
1306;SDS011;646;48.696;9.114;2022-10-16T01:50:21;2.87;;;2.57;;
1306;SDS011;646;48.696;9.114;2022-10-16T01:52:48;2.47;;;2.30;;
1306;SDS011;646;48.696;9.114;2022-10-16T01:55:18;3.17;;;2.73;;
1306;SDS011;646;48.696;9.114;2022-10-16T01:57:49;2.53;;;2.33;;
1306;SDS011;646;48.696;9.114;2022-10-16T02:00:17;2.30;;;1.83;;
1306;SDS011;646;48.696;9.114;2022-10-16T02:02:46;2.30;;;2.20;;
1306;SDS011;646;48.696;9.114;2022-10-16T02:07:58;3.80;;;2.10;;
1306;SDS011;646;48.696;9.114;2022-10-16T02:10:24;2.20;;;2.00;;
1306;SDS011;646;48.696;9.114;2022-10-16T02:12:53;2.17;;;1.90;;
1306;SDS011;646;48.696;9.114;2022-10-16T02:15:23;2.40;;;2.20;;
1306;SDS011;646;48.696;9.114;2022-10-16T02:17:49;2.27;;;2.17;;
1306;SDS011;646;48.696;9.114;2022-10-16T02:20:14;3.57;;;1.93;;
1306;SDS011;646;48.696;9.114;2022-10-16T02:22:41;2.53;;;2.37;;
1306;SDS011;646;48.696;9.114;2022-10-16T02:25:25;2.30;;;2.10;;
1306;SDS011;646;48.696;9.114;2022-10-16T02:28:13;2.80;;;1.93;;
1306;SDS011;646;48.696;9.114;2022-10-16T02:30:44;2.57;;;2.37;;
1306;SDS011;646;48.696;9.114;2022-10-16T02:33:11;2.00;;;1.90;;
1306;SDS011;646;48.696;9.114;2022-10-16T02:35:39;1.90;;;1.80;;
1306;SDS011;646;48.696;9.114;2022-10-16T02:38:05;2.00;;;1.90;;
1306;SDS011;646;48.696;9.114;2022-10-16T02:40:32;2.27;;;2.10;;
1306;SDS011;646;48.696;9.114;2022-10-16T02:42:58;2.20;;;2.00;;
1306;SDS011;646;48.696;9.114;2022-10-16T02:45:24;2.13;;;1.57;;
1306;SDS011;646;48.696;9.114;2022-10-16T02:47:50;1.90;;;1.80;;
1306;SDS011;646;48.696;9.114;2022-10-16T02:50:16;2.33;;;1.70;;
1306;SDS011;646;48.696;9.114;2022-10-16T02:52:42;1.73;;;1.63;;
1306;SDS011;646;48.696;9.114;2022-10-16T02:55:07;1.77;;;1.67;;
1306;SDS011;646;48.696;9.114;2022-10-16T02:57:33;1.73;;;1.63;;
1306;SDS011;646;48.696;9.114;2022-10-16T03:00:02;2.13;;;1.90;;
1306;SDS011;646;48.696;9.114;2022-10-16T03:02:29;4.97;;;2.07;;
1306;SDS011;646;48.696;9.114;2022-10-16T03:04:54;2.70;;;1.83;;
1306;SDS011;646;48.696;9.114;2022-10-16T03:07:20;1.80;;;1.70;;
1306;SDS011;646;48.696;9.114;2022-10-16T03:09:45;1.77;;;1.67;;
1306;SDS011;646;48.696;9.114;2022-10-16T03:12:11;2.47;;;1.50;;
1306;SDS011;646;48.696;9.114;2022-10-16T03:14:37;1.70;;;1.60;;
1306;SDS011;646;48.696;9.114;2022-10-16T03:17:02;2.20;;;1.80;;
1306;SDS011;646;48.696;9.114;2022-10-16T03:19:28;2.40;;;2.27;;
1306;SDS011;646;48.696;9.114;2022-10-16T03:21:53;1.80;;;1.70;;
1306;SDS011;646;48.696;9.114;2022-10-16T03:24:19;4.00;;;1.80;;
1306;SDS011;646;48.696;9.114;2022-10-16T03:26:44;2.30;;;1.47;;
1306;SDS011;646;48.696;9.114;2022-10-16T03:29:10;3.30;;;1.70;;
1306;SDS011;646;48.696;9.114;2022-10-16T03:31:35;2.27;;;2.07;;
1306;SDS011;646;48.696;9.114;2022-10-16T03:34:01;3.27;;;1.73;;
1306;SDS011;646;48.696;9.114;2022-10-16T03:36:26;2.63;;;2.43;;
1306;SDS011;646;48.696;9.114;2022-10-16T03:38:52;2.37;;;1.73;;
1306;SDS011;646;48.696;9.114;2022-10-16T03:41:17;3.80;;;1.83;;
1306;SDS011;646;48.696;9.114;2022-10-16T03:43:43;2.73;;;1.63;;
1306;SDS011;646;48.696;9.114;2022-10-16T03:46:08;3.40;;;1.80;;
1306;SDS011;646;48.696;9.114;2022-10-16T03:48:34;2.73;;;1.70;;
1306;SDS011;646;48.696;9.114;2022-10-16T03:51:00;3.67;;;1.60;;
1306;SDS011;646;48.696;9.114;2022-10-16T03:53:25;2.20;;;2.03;;
1306;SDS011;646;48.696;9.114;2022-10-16T03:55:51;1.47;;;1.37;;
1306;SDS011;646;48.696;9.114;2022-10-16T03:58:16;2.10;;;1.93;;
1306;SDS011;646;48.696;9.114;2022-10-16T04:00:42;2.80;;;1.87;;
1306;SDS011;646;48.696;9.114;2022-10-16T04:03:09;3.40;;;1.77;;
1306;SDS011;646;48.696;9.114;2022-10-16T04:05:36;1.80;;;1.70;;
1306;SDS011;646;48.696;9.114;2022-10-16T04:08:02;3.00;;;1.60;;
1306;SDS011;646;48.696;9.114;2022-10-16T04:10:28;2.10;;;1.90;;
1306;SDS011;646;48.696;9.114;2022-10-16T04:12:53;2.20;;;1.97;;
1306;SDS011;646;48.696;9.114;2022-10-16T04:15:22;1.80;;;1.70;;
1306;SDS011;646;48.696;9.114;2022-10-16T04:17:48;5.60;;;1.70;;
1306;SDS011;646;48.696;9.114;2022-10-16T04:20:14;2.33;;;1.83;;
1306;SDS011;646;48.696;9.114;2022-10-16T04:22:39;2.90;;;1.67;;
1306;SDS011;646;48.696;9.114;2022-10-16T04:25:05;2.00;;;1.80;;
1306;SDS011;646;48.696;9.114;2022-10-16T04:27:31;3.23;;;1.83;;
1306;SDS011;646;48.696;9.114;2022-10-16T04:29:57;4.10;;;1.80;;
1306;SDS011;646;48.696;9.114;2022-10-16T04:32:24;3.50;;;2.10;;
1306;SDS011;646;48.696;9.114;2022-10-16T04:34:49;2.10;;;1.90;;
1306;SDS011;646;48.696;9.114;2022-10-16T04:37:15;4.53;;;1.87;;
1306;SDS011;646;48.696;9.114;2022-10-16T04:39:40;2.10;;;1.90;;
1306;SDS011;646;48.696;9.114;2022-10-16T04:42:06;2.40;;;2.20;;
1306;SDS011;646;48.696;9.114;2022-10-16T04:44:32;2.70;;;2.10;;
1306;SDS011;646;48.696;9.114;2022-10-16T04:46:57;1.83;;;1.73;;
1306;SDS011;646;48.696;9.114;2022-10-16T04:49:23;2.93;;;1.90;;
1306;SDS011;646;48.696;9.114;2022-10-16T04:51:48;2.20;;;2.00;;
1306;SDS011;646;48.696;9.114;2022-10-16T04:54:14;2.70;;;2.40;;
1306;SDS011;646;48.696;9.114;2022-10-16T04:56:39;2.30;;;2.10;;
1306;SDS011;646;48.696;9.114;2022-10-16T04:59:11;3.57;;;2.00;;
1306;SDS011;646;48.696;9.114;2022-10-16T05:01:38;2.07;;;1.97;;
1306;SDS011;646;48.696;9.114;2022-10-16T05:04:03;2.40;;;2.20;;
1306;SDS011;646;48.696;9.114;2022-10-16T05:06:29;3.20;;;2.23;;
1306;SDS011;646;48.696;9.114;2022-10-16T05:08:54;3.20;;;2.00;;
1306;SDS011;646;48.696;9.114;2022-10-16T05:11:20;2.13;;;1.93;;
1306;SDS011;646;48.696;9.114;2022-10-16T05:13:45;2.03;;;1.90;;
1306;SDS011;646;48.696;9.114;2022-10-16T05:16:11;2.80;;;2.60;;
1306;SDS011;646;48.696;9.114;2022-10-16T05:18:36;1.97;;;1.87;;
1306;SDS011;646;48.696;9.114;2022-10-16T05:21:02;2.20;;;2.10;;
1306;SDS011;646;48.696;9.114;2022-10-16T05:23:28;2.77;;;2.00;;
1306;SDS011;646;48.696;9.114;2022-10-16T05:25:54;3.10;;;2.37;;
1306;SDS011;646;48.696;9.114;2022-10-16T05:28:22;2.03;;;1.93;;
1306;SDS011;646;48.696;9.114;2022-10-16T05:30:49;2.73;;;2.33;;
1306;SDS011;646;48.696;9.114;2022-10-16T05:33:15;2.57;;;2.37;;
1306;SDS011;646;48.696;9.114;2022-10-16T05:35:40;2.13;;;2.03;;
1306;SDS011;646;48.696;9.114;2022-10-16T05:38:06;2.10;;;2.00;;
1306;SDS011;646;48.696;9.114;2022-10-16T05:40:31;1.97;;;1.87;;
1306;SDS011;646;48.696;9.114;2022-10-16T05:42:57;2.03;;;1.93;;
1306;SDS011;646;48.696;9.114;2022-10-16T05:45:22;2.17;;;1.80;;
1306;SDS011;646;48.696;9.114;2022-10-16T05:47:48;3.20;;;1.93;;
1306;SDS011;646;48.696;9.114;2022-10-16T05:50:14;3.53;;;1.90;;
1306;SDS011;646;48.696;9.114;2022-10-16T05:52:39;2.87;;;2.67;;
1306;SDS011;646;48.696;9.114;2022-10-16T05:55:05;2.53;;;2.03;;
1306;SDS011;646;48.696;9.114;2022-10-16T05:57:31;2.87;;;2.40;;
1306;SDS011;646;48.696;9.114;2022-10-16T05:59:56;2.63;;;2.20;;
1306;SDS011;646;48.696;9.114;2022-10-16T06:02:22;3.50;;;2.37;;
1306;SDS011;646;48.696;9.114;2022-10-16T06:04:47;3.10;;;2.50;;
1306;SDS011;646;48.696;9.114;2022-10-16T06:07:13;3.13;;;2.70;;
1306;SDS011;646;48.696;9.114;2022-10-16T06:09:38;2.57;;;2.37;;
1306;SDS011;646;48.696;9.114;2022-10-16T06:12:04;3.60;;;2.30;;
1306;SDS011;646;48.696;9.114;2022-10-16T06:14:29;2.80;;;2.13;;
1306;SDS011;646;48.696;9.114;2022-10-16T06:16:55;2.70;;;2.50;;
1306;SDS011;646;48.696;9.114;2022-10-16T06:19:20;4.13;;;2.17;;
1306;SDS011;646;48.696;9.114;2022-10-16T06:21:47;2.77;;;2.50;;
1306;SDS011;646;48.696;9.114;2022-10-16T06:24:13;2.30;;;2.20;;
1306;SDS011;646;48.696;9.114;2022-10-16T06:26:38;2.43;;;2.23;;
1306;SDS011;646;48.696;9.114;2022-10-16T06:29:04;3.67;;;2.10;;
1306;SDS011;646;48.696;9.114;2022-10-16T06:31:30;2.57;;;2.00;;
1306;SDS011;646;48.696;9.114;2022-10-16T06:33:58;1.93;;;1.83;;
1306;SDS011;646;48.696;9.114;2022-10-16T06:36:24;2.57;;;2.20;;
1306;SDS011;646;48.696;9.114;2022-10-16T06:38:50;2.00;;;1.90;;
1306;SDS011;646;48.696;9.114;2022-10-16T06:41:17;3.50;;;1.90;;
1306;SDS011;646;48.696;9.114;2022-10-16T06:43:44;2.30;;;2.10;;
1306;SDS011;646;48.696;9.114;2022-10-16T06:46:10;4.07;;;1.90;;
1306;SDS011;646;48.696;9.114;2022-10-16T06:48:37;2.20;;;2.03;;
1306;SDS011;646;48.696;9.114;2022-10-16T06:51:04;2.43;;;2.23;;
1306;SDS011;646;48.696;9.114;2022-10-16T06:53:32;2.77;;;2.37;;
1306;SDS011;646;48.696;9.114;2022-10-16T06:56:09;2.23;;;1.97;;
1306;SDS011;646;48.696;9.114;2022-10-16T06:58:36;2.30;;;2.10;;
1306;SDS011;646;48.696;9.114;2022-10-16T07:01:03;2.13;;;2.03;;
1306;SDS011;646;48.696;9.114;2022-10-16T07:03:29;1.93;;;1.83;;
1306;SDS011;646;48.696;9.114;2022-10-16T07:05:55;3.27;;;2.27;;
1306;SDS011;646;48.696;9.114;2022-10-16T07:08:21;5.50;;;5.00;;
1306;SDS011;646;48.696;9.114;2022-10-16T07:10:46;1.97;;;1.87;;
1306;SDS011;646;48.696;9.114;2022-10-16T07:13:12;1.60;;;1.50;;
1306;SDS011;646;48.696;9.114;2022-10-16T07:15:39;2.00;;;1.90;;
1306;SDS011;646;48.696;9.114;2022-10-16T07:18:05;2.43;;;2.27;;
1306;SDS011;646;48.696;9.114;2022-10-16T07:20:31;1.80;;;1.63;;
1306;SDS011;646;48.696;9.114;2022-10-16T07:22:56;3.43;;;1.50;;
1306;SDS011;646;48.696;9.114;2022-10-16T07:25:22;3.30;;;2.13;;
1306;SDS011;646;48.696;9.114;2022-10-16T07:27:47;2.20;;;1.73;;
1306;SDS011;646;48.696;9.114;2022-10-16T07:30:13;3.50;;;1.77;;
1306;SDS011;646;48.696;9.114;2022-10-16T07:32:38;1.90;;;1.80;;
1306;SDS011;646;48.696;9.114;2022-10-16T07:35:04;2.77;;;2.53;;
1306;SDS011;646;48.696;9.114;2022-10-16T07:37:30;2.40;;;2.03;;
1306;SDS011;646;48.696;9.114;2022-10-16T07:39:56;2.00;;;1.90;;
1306;SDS011;646;48.696;9.114;2022-10-16T07:42:21;2.93;;;2.17;;
1306;SDS011;646;48.696;9.114;2022-10-16T07:44:47;1.87;;;1.77;;
1306;SDS011;646;48.696;9.114;2022-10-16T07:47:12;2.20;;;2.00;;
1306;SDS011;646;48.696;9.114;2022-10-16T07:49:38;2.03;;;1.73;;
1306;SDS011;646;48.696;9.114;2022-10-16T07:52:03;2.47;;;2.00;;
1306;SDS011;646;48.696;9.114;2022-10-16T07:54:29;2.57;;;2.37;;
1306;SDS011;646;48.696;9.114;2022-10-16T07:56:54;2.13;;;2.00;;
1306;SDS011;646;48.696;9.114;2022-10-16T07:59:20;2.53;;;2.30;;
1306;SDS011;646;48.696;9.114;2022-10-16T08:01:45;2.07;;;1.97;;
1306;SDS011;646;48.696;9.114;2022-10-16T08:04:11;2.47;;;2.00;;
1306;SDS011;646;48.696;9.114;2022-10-16T08:06:37;2.60;;;2.40;;
1306;SDS011;646;48.696;9.114;2022-10-16T08:09:04;3.63;;;2.23;;
1306;SDS011;646;48.696;9.114;2022-10-16T08:11:30;2.27;;;2.17;;
1306;SDS011;646;48.696;9.114;2022-10-16T08:13:56;2.40;;;2.30;;
1306;SDS011;646;48.696;9.114;2022-10-16T08:16:22;3.27;;;2.47;;
1306;SDS011;646;48.696;9.114;2022-10-16T08:18:47;3.27;;;2.43;;
1306;SDS011;646;48.696;9.114;2022-10-16T08:21:14;3.10;;;2.90;;
1306;SDS011;646;48.696;9.114;2022-10-16T08:23:41;4.53;;;2.30;;
1306;SDS011;646;48.696;9.114;2022-10-16T08:26:07;2.73;;;2.57;;
1306;SDS011;646;48.696;9.114;2022-10-16T08:28:33;3.30;;;2.53;;
1306;SDS011;646;48.696;9.114;2022-10-16T08:31:13;2.50;;;2.30;;
1306;SDS011;646;48.696;9.114;2022-10-16T08:33:41;2.40;;;2.30;;
1306;SDS011;646;48.696;9.114;2022-10-16T08:36:09;1.93;;;1.50;;
1306;SDS011;646;48.696;9.114;2022-10-16T08:38:35;2.53;;;2.33;;
1306;SDS011;646;48.696;9.114;2022-10-16T08:47:13;2.27;;;2.00;;
1306;SDS011;646;48.696;9.114;2022-10-16T08:49:48;2.50;;;2.17;;
1306;SDS011;646;48.696;9.114;2022-10-16T08:52:21;2.60;;;2.30;;
1306;SDS011;646;48.696;9.114;2022-10-16T08:54:49;4.60;;;4.30;;
1306;SDS011;646;48.696;9.114;2022-10-16T08:57:19;4.10;;;3.80;;
1306;SDS011;646;48.696;9.114;2022-10-16T08:59:46;3.50;;;3.30;;
1306;SDS011;646;48.696;9.114;2022-10-16T09:07:25;3.53;;;3.23;;
1306;SDS011;646;48.696;9.114;2022-10-16T09:10:22;2.93;;;2.73;;
1306;SDS011;646;48.696;9.114;2022-10-16T09:13:16;2.73;;;2.53;;
1306;SDS011;646;48.696;9.114;2022-10-16T09:15:55;2.77;;;2.57;;
1306;SDS011;646;48.696;9.114;2022-10-16T09:18:33;2.93;;;2.67;;
1306;SDS011;646;48.696;9.114;2022-10-16T09:21:29;2.93;;;2.40;;
1306;SDS011;646;48.696;9.114;2022-10-16T09:24:17;2.77;;;2.67;;
1306;SDS011;646;48.696;9.114;2022-10-16T09:26:43;3.47;;;3.27;;
1306;SDS011;646;48.696;9.114;2022-10-16T09:29:13;2.50;;;2.30;;
1306;SDS011;646;48.696;9.114;2022-10-16T09:31:41;3.80;;;1.90;;
1306;SDS011;646;48.696;9.114;2022-10-16T09:34:11;1.73;;;1.63;;
1306;SDS011;646;48.696;9.114;2022-10-16T09:36:49;1.97;;;1.77;;
1306;SDS011;646;48.696;9.114;2022-10-16T09:39:16;2.47;;;2.27;;
1306;SDS011;646;48.696;9.114;2022-10-16T09:41:42;1.90;;;1.80;;
1306;SDS011;646;48.696;9.114;2022-10-16T09:44:26;1.73;;;1.63;;
1306;SDS011;646;48.696;9.114;2022-10-16T09:47:04;1.80;;;1.67;;
1306;SDS011;646;48.696;9.114;2022-10-16T09:49:37;2.13;;;1.93;;
1306;SDS011;646;48.696;9.114;2022-10-16T09:52:12;2.13;;;1.93;;
1306;SDS011;646;48.696;9.114;2022-10-16T09:54:48;2.40;;;1.50;;
1306;SDS011;646;48.696;9.114;2022-10-16T09:57:15;1.60;;;1.50;;
1306;SDS011;646;48.696;9.114;2022-10-16T09:59:51;1.57;;;1.47;;
1306;SDS011;646;48.696;9.114;2022-10-16T10:02:30;2.07;;;1.87;;
1306;SDS011;646;48.696;9.114;2022-10-16T10:05:04;2.80;;;1.80;;
1306;SDS011;646;48.696;9.114;2022-10-16T10:07:43;1.70;;;1.60;;
1306;SDS011;646;48.696;9.114;2022-10-16T10:10:20;1.90;;;1.80;;
1306;SDS011;646;48.696;9.114;2022-10-16T10:12:51;1.63;;;1.53;;
1306;SDS011;646;48.696;9.114;2022-10-16T10:15:16;1.50;;;1.40;;
1306;SDS011;646;48.696;9.114;2022-10-16T10:17:53;1.83;;;1.73;;
1306;SDS011;646;48.696;9.114;2022-10-16T10:20:30;1.80;;;1.70;;
1306;SDS011;646;48.696;9.114;2022-10-16T10:23:00;1.50;;;1.40;;
1306;SDS011;646;48.696;9.114;2022-10-16T10:25:51;1.30;;;1.27;;
1306;SDS011;646;48.696;9.114;2022-10-16T10:28:47;1.83;;;1.30;;
1306;SDS011;646;48.696;9.114;2022-10-16T10:37:01;1.47;;;1.37;;
1306;SDS011;646;48.696;9.114;2022-10-16T10:39:42;1.60;;;1.50;;
1306;SDS011;646;48.696;9.114;2022-10-16T10:42:27;1.83;;;1.60;;
1306;SDS011;646;48.696;9.114;2022-10-16T10:45:33;1.90;;;1.70;;
1306;SDS011;646;48.696;9.114;2022-10-16T10:48:03;4.30;;;2.50;;
1306;SDS011;646;48.696;9.114;2022-10-16T10:50:51;1.90;;;1.80;;
1306;SDS011;646;48.696;9.114;2022-10-16T11:09:49;4.70;;;2.23;;
1306;SDS011;646;48.696;9.114;2022-10-16T11:12:26;2.20;;;2.10;;
1306;SDS011;646;48.696;9.114;2022-10-16T11:17:48;2.40;;;2.20;;
1306;SDS011;646;48.696;9.114;2022-10-16T11:20:23;1.73;;;1.63;;
1306;SDS011;646;48.696;9.114;2022-10-16T11:22:56;2.70;;;1.87;;
1306;SDS011;646;48.696;9.114;2022-10-16T11:25:27;2.03;;;1.93;;
1306;SDS011;646;48.696;9.114;2022-10-16T11:28:11;2.70;;;1.70;;
1306;SDS011;646;48.696;9.114;2022-10-16T11:30:57;2.03;;;1.87;;
1306;SDS011;646;48.696;9.114;2022-10-16T11:33:32;4.30;;;2.00;;
1306;SDS011;646;48.696;9.114;2022-10-16T11:36:23;1.47;;;1.27;;
1306;SDS011;646;48.696;9.114;2022-10-16T11:39:04;1.63;;;1.53;;
1306;SDS011;646;48.696;9.114;2022-10-16T11:44:14;1.50;;;1.40;;
1306;SDS011;646;48.696;9.114;2022-10-16T11:47:01;1.50;;;1.40;;
1306;SDS011;646;48.696;9.114;2022-10-16T11:49:30;1.47;;;1.43;;
1306;SDS011;646;48.696;9.114;2022-10-16T11:52:11;1.37;;;1.20;;
1306;SDS011;646;48.696;9.114;2022-10-16T11:57:36;1.40;;;1.30;;
1306;SDS011;646;48.696;9.114;2022-10-16T12:00:20;1.50;;;1.40;;
1306;SDS011;646;48.696;9.114;2022-10-16T12:08:34;1.80;;;1.63;;
1306;SDS011;646;48.696;9.114;2022-10-16T12:11:08;1.43;;;1.33;;
1306;SDS011;646;48.696;9.114;2022-10-16T12:13:45;2.03;;;1.83;;
1306;SDS011;646;48.696;9.114;2022-10-16T12:18:44;1.57;;;1.47;;
1306;SDS011;646;48.696;9.114;2022-10-16T12:21:45;1.67;;;1.57;;
1306;SDS011;646;48.696;9.114;2022-10-16T12:24:04;2.03;;;1.80;;
1306;SDS011;646;48.696;9.114;2022-10-16T12:26:39;2.07;;;1.60;;
1306;SDS011;646;48.696;9.114;2022-10-16T12:29:13;1.93;;;1.77;;
1306;SDS011;646;48.696;9.114;2022-10-16T12:31:47;1.87;;;1.77;;
1306;SDS011;646;48.696;9.114;2022-10-16T12:34:28;1.93;;;1.70;;
1306;SDS011;646;48.696;9.114;2022-10-16T12:39:48;2.40;;;1.80;;
1306;SDS011;646;48.696;9.114;2022-10-16T12:44:53;2.00;;;1.90;;
1306;SDS011;646;48.696;9.114;2022-10-16T12:49:57;1.87;;;1.77;;
1306;SDS011;646;48.696;9.114;2022-10-16T12:52:25;1.87;;;1.67;;
1306;SDS011;646;48.696;9.114;2022-10-16T12:55:13;1.67;;;1.57;;
1306;SDS011;646;48.696;9.114;2022-10-16T12:57:52;1.70;;;1.60;;
1306;SDS011;646;48.696;9.114;2022-10-16T13:00:45;3.23;;;2.20;;
1306;SDS011;646;48.696;9.114;2022-10-16T13:08:53;1.80;;;1.70;;
1306;SDS011;646;48.696;9.114;2022-10-16T13:14:29;2.00;;;1.90;;
1306;SDS011;646;48.696;9.114;2022-10-16T13:17:24;1.90;;;1.77;;
1306;SDS011;646;48.696;9.114;2022-10-16T13:20:10;1.60;;;1.50;;
1306;SDS011;646;48.696;9.114;2022-10-16T13:28:27;2.27;;;2.07;;
1306;SDS011;646;48.696;9.114;2022-10-16T13:30:58;2.23;;;2.03;;
1306;SDS011;646;48.696;9.114;2022-10-16T13:36:02;1.93;;;1.83;;
1306;SDS011;646;48.696;9.114;2022-10-16T13:38:30;2.40;;;2.20;;
1306;SDS011;646;48.696;9.114;2022-10-16T13:40:58;2.63;;;1.63;;
1306;SDS011;646;48.696;9.114;2022-10-16T13:43:27;2.07;;;1.87;;
1306;SDS011;646;48.696;9.114;2022-10-16T13:48:38;2.10;;;1.90;;
1306;SDS011;646;48.696;9.114;2022-10-16T13:51:16;2.00;;;1.90;;
1306;SDS011;646;48.696;9.114;2022-10-16T13:53:43;2.20;;;2.10;;
1306;SDS011;646;48.696;9.114;2022-10-16T13:56:14;1.90;;;1.80;;
1306;SDS011;646;48.696;9.114;2022-10-16T13:58:41;2.00;;;1.90;;
1306;SDS011;646;48.696;9.114;2022-10-16T14:03:39;2.30;;;2.17;;
1306;SDS011;646;48.696;9.114;2022-10-16T14:06:06;2.30;;;2.20;;
1306;SDS011;646;48.696;9.114;2022-10-16T14:08:40;2.27;;;2.07;;
1306;SDS011;646;48.696;9.114;2022-10-16T14:11:12;3.20;;;2.50;;
1306;SDS011;646;48.696;9.114;2022-10-16T14:13:46;2.00;;;1.90;;
1306;SDS011;646;48.696;9.114;2022-10-16T14:16:16;2.47;;;2.27;;
1306;SDS011;646;48.696;9.114;2022-10-16T14:19:33;2.13;;;2.03;;
1306;SDS011;646;48.696;9.114;2022-10-16T14:21:42;1.93;;;1.83;;
1306;SDS011;646;48.696;9.114;2022-10-16T14:24:11;2.23;;;2.10;;
1306;SDS011;646;48.696;9.114;2022-10-16T14:26:42;2.63;;;2.00;;
1306;SDS011;646;48.696;9.114;2022-10-16T14:29:10;2.93;;;2.17;;
1306;SDS011;646;48.696;9.114;2022-10-16T14:31:36;2.20;;;2.10;;
1306;SDS011;646;48.696;9.114;2022-10-16T14:34:02;2.40;;;2.30;;
1306;SDS011;646;48.696;9.114;2022-10-16T14:36:29;2.40;;;2.00;;
1306;SDS011;646;48.696;9.114;2022-10-16T14:39:05;2.63;;;2.27;;
1306;SDS011;646;48.696;9.114;2022-10-16T14:41:41;2.80;;;2.60;;
1306;SDS011;646;48.696;9.114;2022-10-16T14:44:11;2.03;;;1.83;;
1306;SDS011;646;48.696;9.114;2022-10-16T14:46:38;3.00;;;2.63;;
1306;SDS011;646;48.696;9.114;2022-10-16T14:51:34;2.40;;;2.30;;
1306;SDS011;646;48.696;9.114;2022-10-16T14:54:00;2.30;;;2.20;;
1306;SDS011;646;48.696;9.114;2022-10-16T14:56:34;2.40;;;2.30;;
1306;SDS011;646;48.696;9.114;2022-10-16T15:04:55;2.70;;;2.33;;
1306;SDS011;646;48.696;9.114;2022-10-16T15:07:21;3.07;;;2.43;;
1306;SDS011;646;48.696;9.114;2022-10-16T15:09:47;2.67;;;2.47;;
1306;SDS011;646;48.696;9.114;2022-10-16T15:12:13;3.10;;;2.80;;
1306;SDS011;646;48.696;9.114;2022-10-16T15:14:38;1.80;;;1.70;;
1306;SDS011;646;48.696;9.114;2022-10-16T15:17:04;2.70;;;2.40;;
1306;SDS011;646;48.696;9.114;2022-10-16T15:19:30;2.77;;;2.57;;
1306;SDS011;646;48.696;9.114;2022-10-16T15:21:55;2.87;;;2.67;;
1306;SDS011;646;48.696;9.114;2022-10-16T15:24:21;2.90;;;2.70;;
1306;SDS011;646;48.696;9.114;2022-10-16T15:26:47;2.40;;;2.20;;
1306;SDS011;646;48.696;9.114;2022-10-16T15:29:13;2.90;;;2.70;;
1306;SDS011;646;48.696;9.114;2022-10-16T15:31:39;2.53;;;2.33;;
1306;SDS011;646;48.696;9.114;2022-10-16T15:34:08;2.37;;;2.27;;
1306;SDS011;646;48.696;9.114;2022-10-16T15:36:35;2.33;;;2.13;;
1306;SDS011;646;48.696;9.114;2022-10-16T15:39:02;2.60;;;2.40;;
1306;SDS011;646;48.696;9.114;2022-10-16T15:41:29;2.47;;;2.27;;
1306;SDS011;646;48.696;9.114;2022-10-16T15:43:54;4.60;;;2.70;;
1306;SDS011;646;48.696;9.114;2022-10-16T15:46:21;2.83;;;2.53;;
1306;SDS011;646;48.696;9.114;2022-10-16T15:48:48;2.40;;;2.30;;
1306;SDS011;646;48.696;9.114;2022-10-16T15:51:14;2.30;;;2.10;;
1306;SDS011;646;48.696;9.114;2022-10-16T15:53:41;2.63;;;2.43;;
1306;SDS011;646;48.696;9.114;2022-10-16T15:56:07;2.63;;;2.43;;
1306;SDS011;646;48.696;9.114;2022-10-16T15:58:34;3.03;;;2.50;;
1306;SDS011;646;48.696;9.114;2022-10-16T16:01:00;2.70;;;2.50;;
1306;SDS011;646;48.696;9.114;2022-10-16T16:03:26;2.70;;;2.20;;
1306;SDS011;646;48.696;9.114;2022-10-16T16:05:53;3.00;;;2.80;;
1306;SDS011;646;48.696;9.114;2022-10-16T16:08:18;3.33;;;3.07;;
1306;SDS011;646;48.696;9.114;2022-10-16T16:10:44;2.70;;;2.50;;
1306;SDS011;646;48.696;9.114;2022-10-16T16:13:10;3.97;;;2.47;;
1306;SDS011;646;48.696;9.114;2022-10-16T16:15:38;3.17;;;2.87;;
1306;SDS011;646;48.696;9.114;2022-10-16T16:18:05;3.93;;;3.10;;
1306;SDS011;646;48.696;9.114;2022-10-16T16:20:31;2.67;;;2.47;;
1306;SDS011;646;48.696;9.114;2022-10-16T16:22:57;4.20;;;3.03;;
1306;SDS011;646;48.696;9.114;2022-10-16T16:25:22;3.13;;;2.93;;
1306;SDS011;646;48.696;9.114;2022-10-16T16:27:48;6.33;;;3.73;;
1306;SDS011;646;48.696;9.114;2022-10-16T16:30:14;2.70;;;2.50;;
1306;SDS011;646;48.696;9.114;2022-10-16T16:32:39;3.80;;;2.73;;
1306;SDS011;646;48.696;9.114;2022-10-16T16:35:05;3.37;;;2.67;;
1306;SDS011;646;48.696;9.114;2022-10-16T16:37:31;3.10;;;2.57;;
1306;SDS011;646;48.696;9.114;2022-10-16T16:39:56;3.47;;;2.67;;
1306;SDS011;646;48.696;9.114;2022-10-16T16:42:25;3.67;;;3.37;;
1306;SDS011;646;48.696;9.114;2022-10-16T16:44:51;3.50;;;3.30;;
1306;SDS011;646;48.696;9.114;2022-10-16T16:47:17;2.83;;;2.60;;
1306;SDS011;646;48.696;9.114;2022-10-16T16:49:43;3.03;;;2.83;;
1306;SDS011;646;48.696;9.114;2022-10-16T16:52:09;3.87;;;3.00;;
1306;SDS011;646;48.696;9.114;2022-10-16T16:54:34;4.93;;;3.13;;
1306;SDS011;646;48.696;9.114;2022-10-16T16:57:00;3.10;;;2.80;;
1306;SDS011;646;48.696;9.114;2022-10-16T16:59:25;3.80;;;3.50;;
1306;SDS011;646;48.696;9.114;2022-10-16T17:01:51;3.50;;;3.20;;
1306;SDS011;646;48.696;9.114;2022-10-16T17:04:17;3.30;;;3.10;;
1306;SDS011;646;48.696;9.114;2022-10-16T17:06:43;2.90;;;2.70;;
1306;SDS011;646;48.696;9.114;2022-10-16T17:09:09;3.33;;;3.00;;
1306;SDS011;646;48.696;9.114;2022-10-16T17:11:37;5.00;;;3.17;;
1306;SDS011;646;48.696;9.114;2022-10-16T17:14:06;7.07;;;3.50;;
1306;SDS011;646;48.696;9.114;2022-10-16T17:16:33;4.67;;;3.13;;
1306;SDS011;646;48.696;9.114;2022-10-16T17:19:01;3.90;;;2.80;;
1306;SDS011;646;48.696;9.114;2022-10-16T17:21:28;5.37;;;3.73;;